Time;durP1;ratioP1;P1;durP2;ratioP2;P2;SDS_P1;SDS_P2;PMS_P1;PMS_P2;Temp;Humidity;BMP_temperature;BMP_pressure;BME280_temperature;BME280_humidity;BME280_pressure;Samples;Min_cycle;Max_cycle;Signal;HPM_P1;HPM_P2
2023/03/22 00:00:14;;;;;;;4.47;4.18;;;;;;;;;;5050393;28;20712;-78
2023/03/22 00:02:41;;;;;;;4.10;3.70;;;;;;;;;;5035858;28;20383;-78
2023/03/22 00:05:08;;;;;;;4.40;4.00;;;;;;;;;;5050465;28;20409;-78
2023/03/22 00:07:36;;;;;;;4.35;3.85;;;;;;;;;;5034231;28;20379;-77
2023/03/22 00:10:02;;;;;;;4.72;4.32;;;;;;;;;;5054225;28;20373;-77
2023/03/22 00:12:28;;;;;;;5.60;3.78;;;;;;;;;;5036291;28;20390;-77
2023/03/22 00:14:54;;;;;;;4.47;4.07;;;;;;;;;;5047593;28;20925;-77
2023/03/22 00:17:21;;;;;;;4.22;3.80;;;;;;;;;;5040117;28;20435;-77
2023/03/22 00:19:48;;;;;;;4.50;3.63;;;;;;;;;;5053863;28;20385;-78
2023/03/22 00:22:15;;;;;;;4.07;3.67;;;;;;;;;;5053900;28;20455;-76
2023/03/22 00:24:41;;;;;;;4.15;3.60;;;;;;;;;;5051584;28;20488;-77
2023/03/22 00:27:07;;;;;;;3.87;3.43;;;;;;;;;;5033776;28;20901;-77
2023/03/22 00:29:33;;;;;;;3.90;3.30;;;;;;;;;;5033727;28;20423;-79
2023/03/22 00:31:59;;;;;;;3.78;3.40;;;;;;;;;;5029908;28;20466;-77
2023/03/22 00:34:25;;;;;;;3.53;3.23;;;;;;;;;;5053699;28;20400;-77
2023/03/22 00:36:51;;;;;;;5.05;4.10;;;;;;;;;;5035743;28;20391;-78
2023/03/22 00:39:17;;;;;;;4.07;3.75;;;;;;;;;;5039459;28;20393;-78
2023/03/22 00:41:43;;;;;;;4.03;3.63;;;;;;;;;;5051155;28;20385;-78
2023/03/22 00:44:09;;;;;;;4.60;4.00;;;;;;;;;;5037930;28;20977;-77
2023/03/22 00:46:36;;;;;;;4.10;3.70;;;;;;;;;;5038851;28;20459;-77
2023/03/22 00:49:02;;;;;;;4.20;3.60;;;;;;;;;;5039475;28;20443;-77
2023/03/22 00:51:28;;;;;;;4.00;3.60;;;;;;;;;;5053349;28;20381;-77
2023/03/22 00:53:54;;;;;;;4.60;3.40;;;;;;;;;;5048790;28;20446;-78
2023/03/22 00:56:21;;;;;;;6.72;3.50;;;;;;;;;;5038283;28;20402;-78
2023/03/22 00:58:48;;;;;;;5.45;3.83;;;;;;;;;;5051446;28;20393;-77
2023/03/22 01:01:14;;;;;;;3.75;3.20;;;;;;;;;;5053230;28;20384;-77
2023/03/22 01:03:40;;;;;;;3.38;3.08;;;;;;;;;;5053046;28;20409;-77
2023/03/22 01:06:07;;;;;;;3.85;3.45;;;;;;;;;;5053033;28;20488;-76
2023/03/22 01:08:34;;;;;;;3.65;3.35;;;;;;;;;;5035191;28;20468;-78
2023/03/22 01:11:00;;;;;;;3.90;3.20;;;;;;;;;;5052828;28;20374;-78
2023/03/22 01:13:26;;;;;;;3.95;3.15;;;;;;;;;;5037634;28;20433;-77
2023/03/22 01:15:52;;;;;;;3.40;3.10;;;;;;;;;;5047498;28;20412;-77
2023/03/22 01:18:18;;;;;;;3.05;2.80;;;;;;;;;;5030678;28;20412;-77
2023/03/22 01:20:44;;;;;;;3.67;3.10;;;;;;;;;;5051867;28;20417;-77
2023/03/22 01:23:10;;;;;;;3.58;3.10;;;;;;;;;;5050067;28;20394;-78
2023/03/22 01:25:36;;;;;;;3.58;3.05;;;;;;;;;;5051480;28;20424;-78
2023/03/22 01:28:02;;;;;;;5.03;2.92;;;;;;;;;;5051754;28;20389;-78
2023/03/22 01:30:29;;;;;;;3.92;2.90;;;;;;;;;;5050008;28;20382;-78
2023/03/22 01:32:55;;;;;;;3.63;2.88;;;;;;;;;;5043725;28;20450;-78
2023/03/22 01:35:21;;;;;;;3.50;2.90;;;;;;;;;;5044081;28;20427;-78
2023/03/22 01:37:47;;;;;;;4.32;3.60;;;;;;;;;;5039982;28;20383;-78
2023/03/22 01:40:14;;;;;;;2.90;2.70;;;;;;;;;;5043003;28;20399;-78
2023/03/22 01:42:40;;;;;;;3.42;3.05;;;;;;;;;;5036636;28;20402;-78
2023/03/22 01:45:26;;;;;;;4.20;3.30;;;;;;;;;;5034655;28;20962;-78
2023/03/22 01:47:54;;;;;;;3.50;3.20;;;;;;;;;;5032698;28;20378;-78
2023/03/22 01:50:21;;;;;;;3.70;3.30;;;;;;;;;;5034721;28;20736;-78
2023/03/22 01:52:49;;;;;;;3.75;3.30;;;;;;;;;;5050111;28;20938;-77
2023/03/22 01:55:17;;;;;;;3.15;2.85;;;;;;;;;;5049491;28;20473;-77
2023/03/22 01:57:43;;;;;;;2.97;2.67;;;;;;;;;;5051474;28;20433;-77
2023/03/22 02:00:14;;;;;;;3.72;3.17;;;;;;;;;;5032951;28;20389;-77
2023/03/22 02:02:44;;;;;;;3.20;2.90;;;;;;;;;;5052010;28;20442;-77
2023/03/22 02:05:11;;;;;;;3.42;3.03;;;;;;;;;;5051896;28;20404;-77
2023/03/22 02:07:38;;;;;;;4.28;3.80;;;;;;;;;;5051839;28;20377;-76
2023/03/22 02:10:04;;;;;;;4.00;3.70;;;;;;;;;;5052027;28;20382;-76
2023/03/22 02:12:51;;;;;;;4.53;3.63;;;;;;;;;;5051863;28;20373;-77
2023/03/22 02:15:29;;;;;;;3.35;3.05;;;;;;;;;;5035750;28;20390;-77
2023/03/22 02:18:15;;;;;;;4.10;3.33;;;;;;;;;;5053979;28;20433;-76
2023/03/22 02:21:05;;;;;;;3.65;3.35;;;;;;;;;;5053367;28;20464;-78
2023/03/22 02:23:50;;;;;;;3.78;3.47;;;;;;;;;;5041014;28;20381;-77
2023/03/22 02:26:19;;;;;;;3.30;3.00;;;;;;;;;;5048408;28;20374;-77
2023/03/22 02:28:50;;;;;;;4.30;3.30;;;;;;;;;;5051963;28;20378;-77
2023/03/22 02:31:32;;;;;;;4.10;3.70;;;;;;;;;;5050827;28;20373;-76
2023/03/22 02:34:13;;;;;;;3.60;3.30;;;;;;;;;;5051988;28;20396;-77
2023/03/22 02:36:53;;;;;;;4.13;3.73;;;;;;;;;;5051524;28;20390;-77
2023/03/22 02:39:38;;;;;;;3.67;3.35;;;;;;;;;;5048615;28;20868;-77
2023/03/22 02:42:23;;;;;;;4.33;3.70;;;;;;;;;;5020031;28;20964;-77
2023/03/22 02:44:58;;;;;;;4.25;3.30;;;;;;;;;;5043277;28;20414;-76
2023/03/22 02:47:26;;;;;;;4.20;3.80;;;;;;;;;;5051494;28;20420;-76
2023/03/22 02:49:55;;;;;;;4.70;3.33;;;;;;;;;;5051374;28;20425;-77
2023/03/22 02:52:21;;;;;;;5.05;3.50;;;;;;;;;;5051127;28;20381;-77
2023/03/22 02:54:54;;;;;;;3.50;3.20;;;;;;;;;;5031366;28;20416;-77
2023/03/22 02:57:35;;;;;;;3.65;3.35;;;;;;;;;;5040424;28;20421;-76
2023/03/22 03:00:06;;;;;;;3.83;3.42;;;;;;;;;;5049847;28;20874;-77
2023/03/22 03:02:33;;;;;;;5.88;3.40;;;;;;;;;;5046130;28;20401;-77
2023/03/22 03:05:00;;;;;;;4.13;3.75;;;;;;;;;;5051081;28;20490;-76
2023/03/22 03:07:26;;;;;;;3.90;3.50;;;;;;;;;;5051054;28;20393;-76
2023/03/22 03:09:53;;;;;;;3.65;3.35;;;;;;;;;;5051024;28;20388;-77
2023/03/22 03:12:20;;;;;;;3.95;3.55;;;;;;;;;;5050340;28;20471;-76
2023/03/22 03:14:46;;;;;;;4.13;3.78;;;;;;;;;;5051151;28;20804;-77
2023/03/22 03:17:18;;;;;;;3.97;3.25;;;;;;;;;;5050812;28;20396;-77
2023/03/22 03:19:48;;;;;;;4.03;3.57;;;;;;;;;;5051083;28;20397;-77
2023/03/22 03:22:26;;;;;;;3.67;3.22;;;;;;;;;;5051028;28;20384;-77
2023/03/22 03:25:00;;;;;;;3.63;3.33;;;;;;;;;;5050903;28;20402;-77
2023/03/22 03:27:43;;;;;;;3.53;3.22;;;;;;;;;;5033145;28;20385;-77
2023/03/22 03:30:12;;;;;;;3.90;3.50;;;;;;;;;;5050759;28;20460;-77
2023/03/22 03:32:58;;;;;;;3.72;3.33;;;;;;;;;;5050933;28;20381;-77
2023/03/22 03:35:39;;;;;;;4.60;3.50;;;;;;;;;;5050746;28;20382;-77
2023/03/22 03:38:13;;;;;;;3.55;3.25;;;;;;;;;;5033134;28;20381;-77
2023/03/22 03:40:51;;;;;;;4.18;3.88;;;;;;;;;;5050981;28;20386;-76
2023/03/22 03:43:18;;;;;;;3.40;3.20;;;;;;;;;;5047437;28;20379;-78
2023/03/22 03:45:44;;;;;;;3.60;3.30;;;;;;;;;;5054604;28;20369;-78
2023/03/22 03:48:18;;;;;;;5.80;3.70;;;;;;;;;;5054038;28;20412;-77
2023/03/22 03:50:44;;;;;;;3.72;3.40;;;;;;;;;;5054566;28;20416;-77
2023/03/22 03:53:10;;;;;;;4.53;3.50;;;;;;;;;;5054588;28;20435;-77
2023/03/22 03:55:36;;;;;;;3.83;3.53;;;;;;;;;;5054260;28;20377;-77
2023/03/22 03:58:02;;;;;;;4.03;3.20;;;;;;;;;;5047032;28;20861;-77
2023/03/22 04:00:28;;;;;;;3.75;3.45;;;;;;;;;;5036670;28;20852;-78
2023/03/22 04:02:54;;;;;;;3.70;3.35;;;;;;;;;;5037076;28;20379;-77
2023/03/22 04:05:20;;;;;;;3.80;3.50;;;;;;;;;;5054117;28;20443;-77
2023/03/22 04:07:46;;;;;;;3.70;3.40;;;;;;;;;;5054188;28;20385;-77
2023/03/22 04:10:12;;;;;;;3.50;3.20;;;;;;;;;;5054311;28;20378;-77
2023/03/22 04:12:38;;;;;;;3.95;3.50;;;;;;;;;;5054028;28;20385;-77
2023/03/22 04:15:05;;;;;;;2.95;2.65;;;;;;;;;;5054111;28;20513;-77
2023/03/22 04:17:31;;;;;;;3.40;3.10;;;;;;;;;;5041356;28;20379;-77
2023/03/22 04:19:57;;;;;;;3.20;2.90;;;;;;;;;;5053582;28;20454;-77
2023/03/22 04:22:24;;;;;;;3.17;2.88;;;;;;;;;;5053790;28;20397;-78
2023/03/22 04:24:50;;;;;;;3.25;2.95;;;;;;;;;;5053924;28;20401;-77
2023/03/22 04:27:19;;;;;;;3.30;3.00;;;;;;;;;;5053742;28;20862;-77
2023/03/22 04:29:47;;;;;;;3.10;2.80;;;;;;;;;;5051113;28;20382;-77
2023/03/22 04:32:15;;;;;;;3.10;2.80;;;;;;;;;;5033814;28;20764;-77
2023/03/22 04:34:41;;;;;;;2.78;2.47;;;;;;;;;;5025530;28;20379;-78
2023/03/22 04:37:07;;;;;;;2.65;2.45;;;;;;;;;;5026672;28;20884;-77
2023/03/22 04:39:33;;;;;;;2.63;2.35;;;;;;;;;;5020988;28;20393;-77
2023/03/22 04:41:59;;;;;;;2.67;2.20;;;;;;;;;;5025072;28;20391;-78
2023/03/22 04:44:25;;;;;;;2.30;2.10;;;;;;;;;;5033616;28;20493;-78
2023/03/22 04:46:51;;;;;;;2.55;2.35;;;;;;;;;;5033098;28;20466;-77
2023/03/22 04:49:17;;;;;;;2.53;2.33;;;;;;;;;;5033546;28;21081;-77
2023/03/22 04:51:43;;;;;;;3.17;2.40;;;;;;;;;;5032073;28;20391;-77
2023/03/22 04:54:09;;;;;;;2.70;2.50;;;;;;;;;;5040705;28;20386;-77
2023/03/22 04:56:35;;;;;;;2.53;2.33;;;;;;;;;;5031250;28;20415;-77
2023/03/22 04:59:01;;;;;;;2.40;2.20;;;;;;;;;;5015812;28;20411;-78
2023/03/22 05:01:27;;;;;;;2.60;2.40;;;;;;;;;;5033355;28;21163;-78
2023/03/22 05:03:53;;;;;;;4.38;2.53;;;;;;;;;;5033018;28;20514;-77
2023/03/22 05:06:19;;;;;;;2.67;2.40;;;;;;;;;;5033140;28;20379;-78
2023/03/22 05:08:45;;;;;;;2.92;2.60;;;;;;;;;;5033811;28;20376;-77
2023/03/22 05:11:16;;;;;;;2.63;2.42;;;;;;;;;;5033152;28;20402;-77
2023/03/22 05:13:42;;;;;;;4.60;2.70;;;;;;;;;;5032904;28;20466;-77
2023/03/22 05:16:08;;;;;;;2.50;2.30;;;;;;;;;;5032693;28;20466;-77
2023/03/22 05:18:36;;;;;;;3.20;2.30;;;;;;;;;;5015467;28;20395;-77
2023/03/22 05:21:03;;;;;;;2.50;2.30;;;;;;;;;;5032835;28;20394;-76
2023/03/22 05:23:29;;;;;;;2.83;2.45;;;;;;;;;;5032827;28;20375;-77
2023/03/22 05:25:57;;;;;;;2.70;2.50;;;;;;;;;;5032764;28;20472;-77
2023/03/22 05:28:23;;;;;;;2.92;2.67;;;;;;;;;;5014638;28;20900;-76
2023/03/22 05:30:50;;;;;;;2.75;2.55;;;;;;;;;;5032821;28;20422;-76
2023/03/22 05:33:20;;;;;;;2.95;2.60;;;;;;;;;;5032965;28;20394;-76
2023/03/22 05:35:47;;;;;;;2.73;2.53;;;;;;;;;;5025222;28;20414;-76
2023/03/22 05:38:13;;;;;;;3.30;3.00;;;;;;;;;;5032980;28;20398;-77
2023/03/22 05:40:39;;;;;;;2.83;2.60;;;;;;;;;;5032802;28;20569;-77
2023/03/22 05:43:05;;;;;;;3.00;2.80;;;;;;;;;;5032177;28;20391;-78
2023/03/22 05:45:31;;;;;;;2.95;2.75;;;;;;;;;;5031530;28;20438;-76
2023/03/22 05:47:57;;;;;;;2.88;2.63;;;;;;;;;;5028571;28;20375;-76
2023/03/22 05:50:23;;;;;;;3.20;2.90;;;;;;;;;;5031371;28;20391;-76
2023/03/22 05:52:50;;;;;;;3.00;2.70;;;;;;;;;;5031411;28;20375;-76
2023/03/22 05:55:17;;;;;;;2.93;2.63;;;;;;;;;;5031246;28;21274;-76
2023/03/22 05:57:45;;;;;;;3.20;2.47;;;;;;;;;;5040628;28;20472;-77
2023/03/22 06:00:13;;;;;;;4.10;2.63;;;;;;;;;;5048756;28;20430;-78
2023/03/22 06:02:43;;;;;;;3.13;2.60;;;;;;;;;;5036182;28;20513;-78
2023/03/22 06:05:12;;;;;;;2.75;2.47;;;;;;;;;;5046877;28;20927;-77
2023/03/22 06:07:39;;;;;;;3.05;2.85;;;;;;;;;;5048442;28;20392;-77
2023/03/22 06:10:06;;;;;;;3.10;2.90;;;;;;;;;;5045895;28;20439;-77
2023/03/22 06:12:32;;;;;;;2.60;2.40;;;;;;;;;;5049573;28;20378;-77
2023/03/22 06:14:58;;;;;;;4.03;2.88;;;;;;;;;;5047084;28;20413;-76
2023/03/22 06:17:24;;;;;;;3.30;3.00;;;;;;;;;;5050209;28;20373;-77
2023/03/22 06:19:51;;;;;;;3.70;2.78;;;;;;;;;;5049411;28;20381;-78
2023/03/22 06:22:17;;;;;;;3.00;2.53;;;;;;;;;;5050918;28;20417;-77
2023/03/22 06:24:43;;;;;;;3.05;2.75;;;;;;;;;;5040585;28;20419;-77
2023/03/22 06:27:10;;;;;;;2.50;2.30;;;;;;;;;;5048411;28;20381;-77
2023/03/22 06:29:36;;;;;;;3.30;2.40;;;;;;;;;;5049131;28;20381;-77
2023/03/22 06:32:02;;;;;;;3.00;2.70;;;;;;;;;;5032637;28;20438;-76
2023/03/22 06:34:28;;;;;;;4.17;3.77;;;;;;;;;;5050483;28;20954;-76
2023/03/22 06:36:54;;;;;;;5.07;3.30;;;;;;;;;;5044530;28;20930;-76
2023/03/22 06:39:21;;;;;;;4.57;4.05;;;;;;;;;;5050549;28;20469;-76
2023/03/22 06:41:47;;;;;;;4.37;3.70;;;;;;;;;;5049254;28;20390;-76
2023/03/22 06:44:13;;;;;;;4.95;3.53;;;;;;;;;;5042871;28;20411;-76
2023/03/22 06:46:39;;;;;;;3.10;2.90;;;;;;;;;;5044477;28;20389;-77
2023/03/22 06:49:06;;;;;;;3.50;3.20;;;;;;;;;;5045164;28;20937;-76
2023/03/22 06:51:33;;;;;;;3.60;3.20;;;;;;;;;;5042928;28;20394;-77
2023/03/22 06:53:59;;;;;;;5.95;3.45;;;;;;;;;;5050069;28;20396;-77
2023/03/22 06:56:25;;;;;;;4.10;3.70;;;;;;;;;;5040950;28;20884;-76
2023/03/22 06:58:53;;;;;;;3.77;3.47;;;;;;;;;;5044454;28;20395;-76
2023/03/22 07:01:19;;;;;;;3.90;3.60;;;;;;;;;;5041423;28;20994;-77
2023/03/22 07:03:45;;;;;;;4.68;4.10;;;;;;;;;;5039106;28;20454;-76
2023/03/22 07:06:11;;;;;;;4.78;4.38;;;;;;;;;;5036156;28;20524;-76
2023/03/22 07:08:40;;;;;;;4.70;4.40;;;;;;;;;;5020008;28;20402;-76
2023/03/22 07:11:06;;;;;;;4.68;3.90;;;;;;;;;;5040730;28;20863;-77
2023/03/22 07:13:32;;;;;;;4.73;4.33;;;;;;;;;;5034962;28;20470;-76
2023/03/22 07:15:59;;;;;;;5.15;4.22;;;;;;;;;;5034687;28;20414;-78
2023/03/22 07:18:26;;;;;;;4.80;4.40;;;;;;;;;;5041935;28;20388;-77
2023/03/22 07:20:52;;;;;;;4.45;4.15;;;;;;;;;;5047999;28;20380;-77
2023/03/22 07:23:18;;;;;;;4.90;4.50;;;;;;;;;;5043064;28;20382;-75
2023/03/22 07:25:45;;;;;;;4.85;4.45;;;;;;;;;;5045178;28;20415;-77
2023/03/22 07:28:11;;;;;;;4.13;3.83;;;;;;;;;;5038099;28;20407;-76
2023/03/22 07:30:37;;;;;;;6.47;5.93;;;;;;;;;;5034863;28;20422;-75
2023/03/22 07:33:04;;;;;;;4.60;4.20;;;;;;;;;;5017475;28;20395;-76
2023/03/22 07:35:30;;;;;;;4.30;3.90;;;;;;;;;;5044008;28;20390;-76
2023/03/22 07:37:56;;;;;;;4.55;4.15;;;;;;;;;;5034843;28;20395;-75
2023/03/22 07:40:22;;;;;;;5.13;4.72;;;;;;;;;;5034626;28;20441;-76
2023/03/22 07:42:49;;;;;;;5.65;5.15;;;;;;;;;;5034032;28;20433;-76
2023/03/22 07:45:15;;;;;;;5.40;4.90;;;;;;;;;;5037215;28;20766;-76
2023/03/22 07:47:41;;;;;;;6.13;5.00;;;;;;;;;;5043306;28;20470;-76
2023/03/22 07:50:10;;;;;;;5.45;4.95;;;;;;;;;;5041532;28;20419;-76
2023/03/22 07:52:36;;;;;;;5.55;5.05;;;;;;;;;;5035749;28;20387;-76
2023/03/22 07:55:02;;;;;;;7.03;5.18;;;;;;;;;;5034634;28;20387;-76
2023/03/22 07:57:28;;;;;;;5.97;5.40;;;;;;;;;;5034027;28;20403;-77
2023/03/22 07:59:55;;;;;;;5.75;5.25;;;;;;;;;;5033472;28;20919;-77
2023/03/22 08:02:22;;;;;;;5.15;4.65;;;;;;;;;;5034086;28;20717;-77
2023/03/22 08:04:49;;;;;;;7.07;5.20;;;;;;;;;;5034077;28;20415;-77
2023/03/22 08:07:17;;;;;;;6.65;5.30;;;;;;;;;;5034173;28;20378;-77
2023/03/22 08:09:43;;;;;;;8.35;5.80;;;;;;;;;;5034288;28;20383;-77
2023/03/22 08:12:09;;;;;;;5.18;4.65;;;;;;;;;;5034025;28;20386;-76
2023/03/22 08:14:36;;;;;;;6.25;4.30;;;;;;;;;;5034220;28;20375;-76
2023/03/22 08:17:02;;;;;;;4.35;3.80;;;;;;;;;;5033914;28;20379;-77
2023/03/22 08:19:29;;;;;;;5.43;3.42;;;;;;;;;;5033187;28;20395;-77
2023/03/22 08:21:55;;;;;;;3.97;3.20;;;;;;;;;;5033878;28;20529;-77
2023/03/22 08:24:21;;;;;;;4.38;3.33;;;;;;;;;;5026546;28;20446;-77
2023/03/22 08:26:48;;;;;;;3.88;3.20;;;;;;;;;;5016303;28;20411;-77
2023/03/22 08:29:14;;;;;;;4.97;3.53;;;;;;;;;;5033829;28;20383;-77
2023/03/22 08:31:41;;;;;;;5.15;3.47;;;;;;;;;;5029461;28;20473;-77
2023/03/22 08:34:07;;;;;;;5.55;3.72;;;;;;;;;;5033751;28;20433;-77
2023/03/22 08:36:33;;;;;;;6.00;3.58;;;;;;;;;;5033532;28;20391;-77
2023/03/22 08:39:00;;;;;;;4.70;4.20;;;;;;;;;;5015049;28;21084;-77
2023/03/22 08:41:26;;;;;;;4.28;3.58;;;;;;;;;;5031670;28;20415;-78
2023/03/22 08:43:52;;;;;;;4.45;3.88;;;;;;;;;;5033326;28;20473;-77
2023/03/22 08:46:18;;;;;;;8.00;3.80;;;;;;;;;;5033369;28;20395;-77
2023/03/22 08:48:49;;;;;;;4.40;3.63;;;;;;;;;;5033512;28;20383;-77
2023/03/22 08:51:19;;;;;;;5.75;3.83;;;;;;;;;;5033501;28;20864;-77
2023/03/22 08:53:46;;;;;;;4.07;3.65;;;;;;;;;;5032189;28;20383;-77
2023/03/22 08:56:15;;;;;;;3.90;3.60;;;;;;;;;;5032149;28;20407;-77
2023/03/22 08:58:44;;;;;;;4.70;4.30;;;;;;;;;;5027680;28;20387;-77
2023/03/22 09:01:13;;;;;;;5.13;3.92;;;;;;;;;;5027185;28;20375;-78
2023/03/22 09:03:40;;;;;;;4.20;3.80;;;;;;;;;;5032396;28;20383;-78
2023/03/22 09:06:06;;;;;;;3.90;3.60;;;;;;;;;;5024607;28;20782;-78
2023/03/22 09:08:35;;;;;;;4.18;3.78;;;;;;;;;;5011893;28;20760;-78
2023/03/22 09:11:01;;;;;;;4.53;4.13;;;;;;;;;;5031225;28;20749;-78
2023/03/22 09:13:29;;;;;;;4.35;3.95;;;;;;;;;;5028825;28;20383;-78
2023/03/22 09:15:55;;;;;;;4.65;4.03;;;;;;;;;;5014563;28;20387;-78
2023/03/22 09:18:23;;;;;;;4.50;3.80;;;;;;;;;;5027923;28;20411;-78
2023/03/22 09:20:49;;;;;;;4.78;4.13;;;;;;;;;;5033306;28;20458;-79
2023/03/22 09:23:15;;;;;;;4.93;4.53;;;;;;;;;;5023003;28;20423;-79
2023/03/22 09:25:44;;;;;;;4.70;4.25;;;;;;;;;;5030310;28;20435;-79
2023/03/22 09:28:10;;;;;;;4.10;3.70;;;;;;;;;;5028215;28;20381;-78
2023/03/22 09:30:37;;;;;;;4.15;3.75;;;;;;;;;;5012237;28;20387;-78
2023/03/22 09:33:03;;;;;;;4.80;4.03;;;;;;;;;;5015141;28;20400;-78
2023/03/22 09:35:29;;;;;;;4.40;4.00;;;;;;;;;;5032739;28;20441;-79
2023/03/22 09:37:57;;;;;;;4.40;3.88;;;;;;;;;;5032615;28;20402;-78
2023/03/22 09:40:25;;;;;;;4.30;3.80;;;;;;;;;;5032126;28;20391;-78
2023/03/22 09:42:53;;;;;;;4.33;3.83;;;;;;;;;;5032633;28;20418;-79
2023/03/22 09:45:36;;;;;;;4.40;4.00;;;;;;;;;;5032308;28;20873;-78
2023/03/22 09:48:03;;;;;;;4.40;3.50;;;;;;;;;;5032396;28;20868;-79
2023/03/22 09:50:30;;;;;;;3.50;3.10;;;;;;;;;;5032544;28;20383;-78
2023/03/22 09:52:56;;;;;;;4.30;3.70;;;;;;;;;;5032418;28;20470;-78
2023/03/22 09:55:44;;;;;;;3.22;3.00;;;;;;;;;;5012911;28;20387;-78
2023/03/22 09:58:24;;;;;;;3.70;2.70;;;;;;;;;;5025951;28;20898;-79
2023/03/22 10:01:02;;;;;;;2.85;2.45;;;;;;;;;;5032291;28;20406;-79
2023/03/22 10:03:46;;;;;;;3.38;3.08;;;;;;;;;;5032311;28;20406;-78
2023/03/22 10:06:23;;;;;;;2.97;2.70;;;;;;;;;;5032056;28;20414;-78
2023/03/22 10:08:49;;;;;;;3.38;2.85;;;;;;;;;;5031864;28;20779;-78
2023/03/22 10:11:34;;;;;;;3.50;3.05;;;;;;;;;;5032047;28;20386;-78
2023/03/22 10:14:10;;;;;;;5.72;3.00;;;;;;;;;;5023643;28;20371;-79
2023/03/22 10:16:36;;;;;;;3.25;3.00;;;;;;;;;;5031971;28;20433;-78
2023/03/22 10:19:05;;;;;;;3.20;2.90;;;;;;;;;;5031298;28;20415;-79
2023/03/22 10:21:31;;;;;;;4.32;3.85;;;;;;;;;;5029259;28;20442;-79
2023/03/22 10:24:00;;;;;;;4.53;3.95;;;;;;;;;;5031570;28;20502;-79
2023/03/22 10:26:28;;;;;;;4.72;3.80;;;;;;;;;;5027303;28;20396;-79
2023/03/22 10:29:04;;;;;;;5.18;3.80;;;;;;;;;;5018345;28;20389;-79
2023/03/22 10:31:31;;;;;;;3.70;3.25;;;;;;;;;;5031561;28;20375;-79
2023/03/22 10:33:58;;;;;;;2.88;2.50;;;;;;;;;;5031713;28;20384;-79
2023/03/22 10:36:27;;;;;;;2.72;2.28;;;;;;;;;;5031439;28;20382;-79
2023/03/22 10:38:56;;;;;;;2.70;2.00;;;;;;;;;;5031589;28;20380;-79
2023/03/22 10:41:23;;;;;;;2.60;2.00;;;;;;;;;;5029626;28;20427;-78
2023/03/22 10:43:52;;;;;;;2.60;2.40;;;;;;;;;;5031502;28;20424;-78
2023/03/22 10:46:20;;;;;;;2.57;2.37;;;;;;;;;;5031439;28;20516;-79
2023/03/22 10:48:49;;;;;;;2.45;2.25;;;;;;;;;;5031502;28;20407;-78
2023/03/22 10:51:35;;;;;;;5.45;2.20;;;;;;;;;;5030615;28;20434;-78
2023/03/22 10:54:02;;;;;;;3.20;2.17;;;;;;;;;;5031179;28;20856;-79
2023/03/22 10:56:28;;;;;;;3.83;2.55;;;;;;;;;;5037066;28;20404;-78
2023/03/22 10:58:54;;;;;;;2.20;2.00;;;;;;;;;;5051180;28;20396;-78
2023/03/22 11:01:28;;;;;;;4.18;2.30;;;;;;;;;;5051253;28;20381;-80
2023/03/22 11:03:56;;;;;;;3.13;2.35;;;;;;;;;;5051064;28;20421;-79
2023/03/22 11:06:24;;;;;;;3.00;2.43;;;;;;;;;;5051134;28;20388;-79
2023/03/22 11:08:51;;;;;;;2.95;2.25;;;;;;;;;;5051097;28;20380;-79
2023/03/22 11:11:23;;;;;;;2.90;2.28;;;;;;;;;;5050582;28;20394;-79
2023/03/22 11:13:58;;;;;;;2.00;1.88;;;;;;;;;;5046572;28;20383;-79
2023/03/22 11:16:25;;;;;;;2.38;1.88;;;;;;;;;;5032748;28;20440;-79
2023/03/22 11:18:51;;;;;;;3.25;2.28;;;;;;;;;;5050522;28;20373;-79
2023/03/22 11:21:17;;;;;;;2.03;1.63;;;;;;;;;;5032402;28;20464;-79
2023/03/22 11:23:53;;;;;;;2.63;2.00;;;;;;;;;;5050557;28;20374;-79
2023/03/22 11:26:24;;;;;;;2.60;1.70;;;;;;;;;;5050369;28;20413;-79
2023/03/22 11:28:51;;;;;;;1.42;1.30;;;;;;;;;;5033239;28;20393;-79
2023/03/22 11:31:19;;;;;;;1.40;1.30;;;;;;;;;;5050245;28;20373;-79
2023/03/22 11:33:56;;;;;;;1.58;1.15;;;;;;;;;;5050658;28;20381;-79
2023/03/22 11:36:22;;;;;;;2.33;1.10;;;;;;;;;;5046811;28;20381;-80
2023/03/22 11:38:48;;;;;;;1.88;1.30;;;;;;;;;;5050321;28;20743;-80
2023/03/22 11:41:21;;;;;;;2.35;1.23;;;;;;;;;;5050636;28;20388;-79
2023/03/22 11:43:48;;;;;;;2.63;1.10;;;;;;;;;;5050274;28;20384;-79
2023/03/22 11:46:18;;;;;;;2.00;0.95;;;;;;;;;;5028108;28;20810;-79
2023/03/22 11:48:45;;;;;;;1.20;1.10;;;;;;;;;;5047388;28;20684;-79
2023/03/22 11:51:32;;;;;;;1.20;0.90;;;;;;;;;;5042967;28;20379;-79
2023/03/22 11:54:05;;;;;;;1.30;1.00;;;;;;;;;;5037874;28;20793;-79
2023/03/22 11:56:31;;;;;;;2.45;1.00;;;;;;;;;;5037054;28;20414;-79
2023/03/22 11:59:07;;;;;;;1.80;1.00;;;;;;;;;;5040888;28;20388;-79
2023/03/22 12:01:36;;;;;;;1.83;1.00;;;;;;;;;;5034740;28;20721;-80
2023/03/22 12:04:05;;;;;;;2.42;1.05;;;;;;;;;;5042986;28;20413;-79
2023/03/22 12:06:32;;;;;;;1.70;0.98;;;;;;;;;;5043855;28;20381;-78
2023/03/22 12:09:03;;;;;;;1.92;0.80;;;;;;;;;;5045866;28;20382;-78
2023/03/22 12:11:32;;;;;;;1.23;0.90;;;;;;;;;;5044122;28;20456;-79
2023/03/22 12:14:04;;;;;;;1.80;0.90;;;;;;;;;;5041314;28;20392;-79
2023/03/22 12:16:50;;;;;;;1.88;0.70;;;;;;;;;;5035320;28;20375;-79
2023/03/22 12:19:36;;;;;;;0.77;0.65;;;;;;;;;;5049594;28;20381;-79
2023/03/22 12:22:02;;;;;;;1.10;0.80;;;;;;;;;;5051527;28;20870;-79
2023/03/22 12:24:29;;;;;;;1.38;0.73;;;;;;;;;;5050294;28;20487;-79
2023/03/22 12:27:01;;;;;;;0.82;0.60;;;;;;;;;;5054405;28;20404;-80
2023/03/22 12:29:28;;;;;;;2.22;0.90;;;;;;;;;;5049539;28;20402;-78
2023/03/22 12:31:57;;;;;;;1.23;0.70;;;;;;;;;;5066099;28;20413;-79
2023/03/22 12:34:26;;;;;;;2.10;0.70;;;;;;;;;;5059131;28;20498;-80
2023/03/22 12:36:54;;;;;;;1.37;0.57;;;;;;;;;;5056810;28;20480;-81
2023/03/22 12:39:23;;;;;;;3.20;0.73;;;;;;;;;;5056249;28;20404;-80
2023/03/22 12:41:50;;;;;;;4.00;1.20;;;;;;;;;;5054300;28;20389;-81
2023/03/22 12:44:18;;;;;;;1.23;0.80;;;;;;;;;;5053177;28;20401;-79
2023/03/22 12:46:47;;;;;;;4.65;0.90;;;;;;;;;;5051859;28;20461;-79
2023/03/22 12:49:13;;;;;;;2.83;0.70;;;;;;;;;;5053215;28;20439;-82
2023/03/22 12:51:40;;;;;;;1.85;0.80;;;;;;;;;;5035647;28;20385;-80
2023/03/22 12:54:06;;;;;;;1.00;0.60;;;;;;;;;;5053553;28;20821;-81
2023/03/22 12:56:38;;;;;;;1.33;0.63;;;;;;;;;;5035370;28;20401;-80
2023/03/22 12:59:05;;;;;;;1.00;0.60;;;;;;;;;;5053594;28;20397;-80
2023/03/22 13:01:35;;;;;;;1.10;0.95;;;;;;;;;;5053476;28;20435;-80
2023/03/22 13:04:21;;;;;;;1.08;0.70;;;;;;;;;;5053456;28;20479;-81
2023/03/22 13:06:47;;;;;;;1.07;0.80;;;;;;;;;;5052979;28;20430;-80
2023/03/22 13:09:16;;;;;;;0.98;0.60;;;;;;;;;;5053464;28;20378;-80
2023/03/22 13:11:49;;;;;;;0.73;0.65;;;;;;;;;;5053129;28;20388;-81
2023/03/22 13:14:33;;;;;;;1.30;0.60;;;;;;;;;;5052291;28;20374;-81
2023/03/22 13:17:00;;;;;;;0.63;0.50;;;;;;;;;;5049720;28;20488;-85
2023/03/22 13:19:32;;;;;;;1.30;0.60;;;;;;;;;;5048779;28;20409;-79
2023/03/22 13:22:15;;;;;;;0.77;0.60;;;;;;;;;;5052659;28;20424;-80
2023/03/22 13:24:59;;;;;;;1.60;0.77;;;;;;;;;;5052848;28;20923;-80
2023/03/22 13:27:36;;;;;;;1.70;0.70;;;;;;;;;;5046943;28;20380;-80
2023/03/22 13:30:04;;;;;;;2.17;0.70;;;;;;;;;;5053016;28;20378;-80
2023/03/22 13:32:32;;;;;;;0.90;0.70;;;;;;;;;;5052933;28;20400;-80
2023/03/22 13:34:59;;;;;;;1.05;0.77;;;;;;;;;;5052953;28;20381;-81
2023/03/22 13:37:33;;;;;;;1.10;1.00;;;;;;;;;;5052724;28;20427;-80
2023/03/22 13:40:01;;;;;;;0.70;0.70;;;;;;;;;;5052805;28;20431;-80
2023/03/22 13:42:38;;;;;;;1.00;0.80;;;;;;;;;;5052923;28;20400;-80
2023/03/22 13:45:07;;;;;;;2.22;0.80;;;;;;;;;;5052747;28;20405;-81
2023/03/22 13:47:43;;;;;;;1.25;0.80;;;;;;;;;;5052656;28;20386;-79
2023/03/22 13:50:21;;;;;;;2.30;0.80;;;;;;;;;;5051788;28;20384;-82
2023/03/22 13:52:59;;;;;;;1.27;1.00;;;;;;;;;;5052339;28;20527;-79
2023/03/22 13:55:35;;;;;;;1.25;0.82;;;;;;;;;;5043779;28;20469;-80
2023/03/22 13:58:01;;;;;;;1.23;0.90;;;;;;;;;;5051949;28;20409;-80
2023/03/22 14:00:30;;;;;;;2.70;0.90;;;;;;;;;;5051925;28;20396;-80
2023/03/22 14:03:00;;;;;;;2.17;0.70;;;;;;;;;;5047858;28;20893;-79
2023/03/22 14:05:30;;;;;;;0.90;0.80;;;;;;;;;;5051240;28;20463;-83
2023/03/22 14:07:58;;;;;;;1.17;0.80;;;;;;;;;;5052011;28;20397;-82
2023/03/22 14:10:33;;;;;;;2.53;0.65;;;;;;;;;;5027885;28;20739;-79
2023/03/22 14:13:02;;;;;;;1.65;0.80;;;;;;;;;;5051729;28;20424;-81
2023/03/22 14:15:29;;;;;;;2.20;0.70;;;;;;;;;;5051300;28;20420;-79
2023/03/22 14:17:58;;;;;;;1.05;0.70;;;;;;;;;;5051605;28;20427;-79
2023/03/22 14:20:25;;;;;;;1.02;0.70;;;;;;;;;;5051586;28;20378;-80
2023/03/22 14:22:58;;;;;;;1.15;0.70;;;;;;;;;;5051344;28;20567;-79
2023/03/22 14:25:30;;;;;;;2.33;0.80;;;;;;;;;;5045797;28;20407;-79
2023/03/22 14:27:56;;;;;;;1.75;0.57;;;;;;;;;;5038850;28;20381;-81
2023/03/22 14:30:29;;;;;;;1.67;0.73;;;;;;;;;;5045335;28;20523;-79
2023/03/22 14:32:58;;;;;;;3.53;1.00;;;;;;;;;;5050474;28;20933;-78
2023/03/22 14:35:37;;;;;;;3.75;0.70;;;;;;;;;;5051382;28;20397;-79
2023/03/22 14:38:06;;;;;;;12.40;1.40;;;;;;;;;;5033341;28;20390;-79
2023/03/22 14:40:34;;;;;;;4.90;0.90;;;;;;;;;;5051376;28;20379;-79
2023/03/22 14:43:21;;;;;;;3.80;0.73;;;;;;;;;;5050872;28;20385;-79
2023/03/22 14:45:47;;;;;;;4.28;0.75;;;;;;;;;;5051087;28;20405;-79
2023/03/22 14:48:33;;;;;;;4.25;0.70;;;;;;;;;;5050811;28;20382;-79
2023/03/22 14:51:05;;;;;;;7.83;1.10;;;;;;;;;;5050957;28;20415;-79
2023/03/22 14:53:35;;;;;;;7.03;0.88;;;;;;;;;;5049287;28;20388;-79